Pagrindinis puslapis
METAR-TAF:

METAR-TAF

Oro uostai :

Donau

Neuburg, Vokietija

platuma: 48-43N, ilguma: 011-13E, Aukštis: 380 m

Dabartinis oras

Ataskaita buvo paskelbta 50 minutes, ne 19:20 UTC
Vėjas 1 kt iš Pietvakarių
Temperatūra 4°C
Drėgmė 93%
Slėgis 1013 hPa
Matomumas 10 km arba daugiau
Su prošvaistėmis ne aukštis 25000 ft
Sekli rūkas

METAR: ETSN 271920Z 22001KT 9999 MIFG BKN250 04/03 Q1013 BLU+

Laikas: 21:10 (20:10 UTC)

Prognozė

Ataskaita buvo paskelbta 5 valandos ir 50 minutes, ne 14:20 UTC
Prognozė galioja nuo 27 metu 15 UTC su 27 metu 24 UTC
Vėjas 5 kt iš Pietų/Pietvakarių
Matomumas 10 km arba daugiau
Išsisklaidę debesys ne aukštis 1000 ft
Su prošvaistėmis ne aukštis 5000 ft
Laikinai
nuo 27 metu 15 UTC su 27 metu 24 UTC
Vėjas 5 kt iš Pietvakarių
Matomumas 10 km arba daugiau
Mažai debesys ne aukštis 1000 ft
Išsisklaidę debesys ne aukštis 5000 ft

TAF: ETSN 271420Z 2715/2724 20005KT 9999 NSW SCT010 BKN050 TEMPO 2715/2724 23005KT 9999 NSW FEW010 SCT050 BY ETGL

Orai ataskaitas ir orų prognozės (METAR, TAF).

turimą stotys yra geltonos ir raudonos taškus žemėlapyje.

Perkelti pele per norėdami pamatyti stoties vardą.

Tada spustelėkite, norėdami matyti oro stebėjimo ir prognozės.

Norėdami pakeisti žemėlapį: spustelėkite ant žalios mygtukų su juodo kryžiaus žemyn,; žalią mygtuką su brūkšneliu, jei norite nutolinti; arba žalių rodyklių gretimoms žemėlapius.


METAR-TAF: